createdAt,value
2023-03-12T00:01:23.451Z,7.50
2023-03-12T00:03:52.196Z,8.40
2023-03-12T00:06:21.373Z,7.80
2023-03-12T00:08:49.917Z,7.20
2023-03-12T00:11:20.229Z,6.30
2023-03-12T00:13:53.784Z,6.60
2023-03-12T00:16:22.850Z,6.10
2023-03-12T00:18:53.968Z,6.80
2023-03-12T00:21:23.190Z,5.40
2023-03-12T00:23:52.358Z,5.70
2023-03-12T00:26:21.813Z,5.30
2023-03-12T00:28:50.829Z,5.90
2023-03-12T00:31:21.743Z,6.00
2023-03-12T00:33:50.687Z,5.80
2023-03-12T00:36:24.486Z,5.90
2023-03-12T00:38:53.274Z,6.10
2023-03-12T00:41:23.415Z,6.60
2023-03-12T00:43:52.811Z,4.20
2023-03-12T00:46:22.083Z,5.90
2023-03-12T00:48:50.384Z,5.50
2023-03-12T00:51:19.016Z,5.70
2023-03-12T00:53:47.343Z,6.00
2023-03-12T00:56:16.001Z,6.20
2023-03-12T00:58:44.339Z,5.90
2023-03-12T01:01:12.771Z,4.90
2023-03-12T01:03:41.068Z,5.90
2023-03-12T01:06:09.646Z,5.40
2023-03-12T01:08:38.396Z,6.10
2023-03-12T01:11:06.590Z,6.50
2023-03-12T01:13:34.780Z,6.40
2023-03-12T01:16:03.064Z,5.50
2023-03-12T01:18:31.347Z,6.40
2023-03-12T01:20:59.892Z,6.40
2023-03-12T01:23:28.510Z,6.20
2023-03-12T01:25:56.900Z,6.60
2023-03-12T01:28:26.242Z,6.30
2023-03-12T01:30:54.524Z,6.80
2023-03-12T01:33:23.092Z,5.90
2023-03-12T01:35:51.657Z,5.80
2023-03-12T01:38:21.030Z,6.60
2023-03-12T01:40:49.518Z,5.90
2023-03-12T01:43:31.527Z,6.90
2023-03-12T01:46:00.517Z,6.60
2023-03-12T01:49:01.580Z,5.80
2023-03-12T01:51:42.519Z,6.70
2023-03-12T01:54:17.129Z,6.50
2023-03-12T01:56:47.042Z,6.10
2023-03-12T01:59:27.957Z,6.10
2023-03-12T02:01:56.217Z,6.50
2023-03-12T02:04:27.264Z,6.80
2023-03-12T02:07:05.436Z,6.30
2023-03-12T02:09:36.337Z,6.20
2023-03-12T02:12:05.493Z,6.50
2023-03-12T02:14:34.204Z,7.10
2023-03-12T02:17:02.563Z,6.80
2023-03-12T02:20:08.205Z,6.70
2023-03-12T02:22:38.968Z,6.40
2023-03-12T02:25:22.224Z,6.80
2023-03-12T02:27:51.684Z,6.80
2023-03-12T02:30:21.306Z,6.40
2023-03-12T02:32:52.091Z,5.90
2023-03-12T02:35:20.442Z,7.00
2023-03-12T02:37:55.171Z,5.60
2023-03-12T02:40:30.165Z,6.60
2023-03-12T02:42:58.650Z,6.40
2023-03-12T02:45:27.616Z,5.80
2023-03-12T02:47:56.058Z,6.50
2023-03-12T02:50:24.358Z,5.90
2023-03-12T02:52:52.647Z,5.50
2023-03-12T02:55:20.957Z,4.40
2023-03-12T02:57:49.387Z,4.40
2023-03-12T03:00:18.412Z,4.40
2023-03-12T03:02:50.185Z,4.00
2023-03-12T03:05:20.616Z,3.90
2023-03-12T03:07:48.909Z,3.60
2023-03-12T03:10:17.718Z,3.40
2023-03-12T03:12:46.213Z,3.70
2023-03-12T03:15:14.771Z,3.30
2023-03-12T03:17:43.087Z,3.70
2023-03-12T03:20:12.138Z,3.40
2023-03-12T03:22:40.616Z,3.60
2023-03-12T03:25:10.751Z,4.00
2023-03-12T03:27:38.936Z,3.70
2023-03-12T03:30:08.105Z,3.30
2023-03-12T03:32:39.069Z,4.10
2023-03-12T03:35:08.011Z,3.60
2023-03-12T03:37:36.469Z,4.40
2023-03-12T03:40:05.978Z,4.30
2023-03-12T03:42:34.985Z,4.40
2023-03-12T03:45:03.704Z,4.30
2023-03-12T03:47:32.054Z,4.90
2023-03-12T03:50:00.438Z,4.90
2023-03-12T03:52:29.252Z,4.50
2023-03-12T03:54:59.509Z,3.50
2023-03-12T03:57:28.232Z,3.20
2023-03-12T04:00:00.904Z,2.90
2023-03-12T04:02:30.819Z,2.60
2023-03-12T04:05:00.212Z,2.50
2023-03-12T04:07:29.137Z,2.80
2023-03-12T04:09:58.354Z,3.50
2023-03-12T04:12:28.188Z,4.00
2023-03-12T04:14:56.431Z,3.90
2023-03-12T04:17:25.000Z,3.60
2023-03-12T04:19:53.533Z,3.40
2023-03-12T04:22:21.903Z,2.80
2023-03-12T04:24:50.525Z,2.70
2023-03-12T04:27:18.746Z,2.70
2023-03-12T04:29:47.047Z,2.70
2023-03-12T04:32:15.433Z,2.90
2023-03-12T04:34:43.778Z,3.10
2023-03-12T04:37:15.353Z,2.40
2023-03-12T04:39:44.390Z,2.30
2023-03-12T04:42:12.800Z,2.00
2023-03-12T04:44:41.945Z,1.60
2023-03-12T04:47:10.446Z,2.50
2023-03-12T04:49:39.820Z,2.90
2023-03-12T04:52:08.530Z,2.40
2023-03-12T04:54:37.584Z,1.90
2023-03-12T04:57:06.261Z,2.00
2023-03-12T04:59:34.494Z,1.70
2023-03-12T05:02:03.022Z,1.60
2023-03-12T05:04:33.627Z,2.00
2023-03-12T05:07:03.333Z,2.60
2023-03-12T05:09:31.959Z,2.20
2023-03-12T05:12:00.536Z,2.10
2023-03-12T05:14:28.822Z,1.90
2023-03-12T05:16:57.254Z,2.00
2023-03-12T05:19:25.566Z,1.80
2023-03-12T05:21:53.721Z,1.70
2023-03-12T05:24:22.658Z,2.00
2023-03-12T05:26:50.910Z,2.20
2023-03-12T05:29:22.250Z,2.50
2023-03-12T05:31:51.083Z,2.30
2023-03-12T05:34:19.529Z,2.10
2023-03-12T05:36:48.211Z,2.10
2023-03-12T05:39:20.375Z,2.50
2023-03-12T05:41:49.022Z,2.50
2023-03-12T05:44:19.071Z,2.10
2023-03-12T05:46:51.258Z,1.80
2023-03-12T05:49:20.438Z,1.90
2023-03-12T05:51:50.228Z,2.10
2023-03-12T05:54:18.942Z,2.80
2023-03-12T05:56:48.490Z,2.70
2023-03-12T05:59:16.883Z,2.10
2023-03-12T06:01:45.322Z,2.00
2023-03-12T06:04:13.710Z,1.90
2023-03-12T06:06:42.412Z,1.30
2023-03-12T06:09:10.690Z,1.70
2023-03-12T06:11:39.201Z,1.80
2023-03-12T06:14:07.561Z,2.40
2023-03-12T06:16:37.489Z,2.20
2023-03-12T06:19:07.784Z,2.00
2023-03-12T06:21:36.458Z,1.90
2023-03-12T06:24:07.027Z,2.00
2023-03-12T06:26:43.804Z,1.60
2023-03-12T06:29:12.118Z,1.50
2023-03-12T06:31:42.293Z,1.50
2023-03-12T06:34:10.869Z,1.80
2023-03-12T06:36:39.044Z,2.40
2023-03-12T06:39:08.328Z,2.80
2023-03-12T06:41:37.055Z,2.30
2023-03-12T06:44:06.524Z,2.60
2023-03-12T06:46:35.120Z,2.50
2023-03-12T06:49:03.404Z,2.10
2023-03-12T06:51:31.619Z,1.90
2023-03-12T06:54:02.789Z,1.80
2023-03-12T06:56:31.659Z,1.50
2023-03-12T06:59:00.051Z,1.70
2023-03-12T07:01:28.277Z,1.60
2023-03-12T07:03:56.542Z,1.60
2023-03-12T07:06:25.712Z,1.60
2023-03-12T07:08:54.431Z,1.90
2023-03-12T07:11:22.835Z,1.80
2023-03-12T07:13:51.783Z,2.00
2023-03-12T07:16:20.182Z,1.90
2023-03-12T07:18:48.651Z,2.10
2023-03-12T07:21:22.853Z,1.70
2023-03-12T07:23:52.133Z,1.60
2023-03-12T07:26:21.380Z,2.20
2023-03-12T07:28:49.957Z,1.90
2023-03-12T07:31:18.431Z,1.60
2023-03-12T07:33:47.004Z,2.10
2023-03-12T07:36:15.416Z,1.90
2023-03-12T07:38:43.872Z,2.20
2023-03-12T07:41:12.409Z,2.60
2023-03-12T07:43:40.747Z,2.90
2023-03-12T07:46:09.281Z,2.50
2023-03-12T07:48:37.756Z,2.70
2023-03-12T07:51:07.167Z,3.70
2023-03-12T07:53:35.531Z,2.70
2023-03-12T07:56:03.927Z,2.90
2023-03-12T07:58:32.316Z,2.80
2023-03-12T08:01:00.799Z,2.90
2023-03-12T08:03:30.850Z,2.50
2023-03-12T08:06:01.585Z,2.60
2023-03-12T08:08:31.431Z,2.70
2023-03-12T08:11:00.604Z,2.70
2023-03-12T08:13:28.985Z,3.00
2023-03-12T08:15:57.219Z,2.80
2023-03-12T08:18:26.108Z,3.40
2023-03-12T08:20:54.859Z,3.60
2023-03-12T08:23:24.299Z,3.40
2023-03-12T08:25:53.601Z,2.90
2023-03-12T08:28:23.495Z,2.70
2023-03-12T08:30:56.064Z,2.90
2023-03-12T08:33:24.711Z,2.80
2023-03-12T08:35:53.104Z,2.40
2023-03-12T08:38:21.575Z,2.00
2023-03-12T08:40:58.542Z,1.60
2023-03-12T08:43:29.398Z,1.30
2023-03-12T08:46:02.674Z,1.20
2023-03-12T08:48:32.880Z,1.50
2023-03-12T08:51:04.366Z,1.70
2023-03-12T08:53:34.547Z,2.20
2023-03-12T08:56:03.693Z,2.40
2023-03-12T08:58:32.565Z,2.60
2023-03-12T09:03:43.500Z,3.00
2023-03-12T09:06:16.891Z,2.30
2023-03-12T09:08:46.356Z,2.20
2023-03-12T09:11:15.567Z,2.10
2023-03-12T09:14:16.847Z,1.70
2023-03-12T09:16:32.987Z,1.50
2023-03-12T09:19:01.340Z,2.10
2023-03-12T09:21:29.568Z,2.10
2023-03-12T09:23:57.927Z,2.30
2023-03-12T09:26:26.975Z,1.90
2023-03-12T09:28:55.335Z,2.40
2023-03-12T09:31:24.038Z,2.10
2023-03-12T09:33:52.877Z,2.90
2023-03-12T09:36:21.078Z,2.70
2023-03-12T09:38:49.244Z,2.40
2023-03-12T09:41:27.179Z,2.20
2023-03-12T09:44:02.006Z,2.40
2023-03-12T09:46:40.482Z,2.60
2023-03-12T09:49:19.760Z,2.70
2023-03-12T09:51:54.162Z,2.70
2023-03-12T09:54:38.605Z,3.00
2023-03-12T09:57:14.826Z,2.80
2023-03-12T09:59:44.108Z,2.50
2023-03-12T10:02:33.830Z,2.60
2023-03-12T10:05:12.080Z,2.90
2023-03-12T10:07:54.502Z,3.80
2023-03-12T10:10:37.080Z,3.60
2023-03-12T10:13:32.699Z,3.50
2023-03-12T10:16:22.223Z,3.50
2023-03-12T10:19:16.333Z,3.30
2023-03-12T10:21:53.423Z,3.30
2023-03-12T10:24:52.083Z,3.80
2023-03-12T10:27:22.924Z,3.40
2023-03-12T10:29:53.706Z,2.90
2023-03-12T10:32:42.480Z,3.30
2023-03-12T10:35:19.352Z,3.60
2023-03-12T10:37:55.230Z,3.00
2023-03-12T10:40:26.833Z,2.80
2023-03-12T10:42:55.725Z,3.10
2023-03-12T10:45:35.508Z,2.50
2023-03-12T10:48:09.868Z,2.50
2023-03-12T10:50:40.469Z,3.20
2023-03-12T10:53:22.859Z,2.80
2023-03-12T10:56:00.356Z,3.40
2023-03-12T10:58:34.186Z,2.40
2023-03-12T11:01:05.727Z,2.70
2023-03-12T11:03:34.291Z,2.70
2023-03-12T11:06:07.074Z,2.90
2023-03-12T11:08:37.519Z,3.70
2023-03-12T11:11:06.166Z,2.50
2023-03-12T11:13:41.903Z,2.00
2023-03-12T11:16:19.252Z,3.40
2023-03-12T11:19:05.245Z,2.50
2023-03-12T11:21:37.288Z,2.70
2023-03-12T11:24:13.306Z,3.40
2023-03-12T11:26:54.629Z,3.20
2023-03-12T11:29:33.365Z,3.00
2023-03-12T11:32:30.221Z,2.60
2023-03-12T11:34:59.674Z,2.60
2023-03-12T11:37:42.297Z,2.00
2023-03-12T11:40:21.277Z,2.60
2023-03-12T11:42:55.522Z,2.10
2023-03-12T11:45:32.116Z,2.10
2023-03-12T11:48:34.249Z,2.30
2023-03-12T11:51:14.776Z,3.40
2023-03-12T11:53:46.318Z,2.90
2023-03-12T11:56:14.706Z,3.30
2023-03-12T11:59:00.920Z,2.90
2023-03-12T12:01:56.498Z,4.70
2023-03-12T12:04:25.016Z,2.30
2023-03-12T12:07:13.593Z,2.20
2023-03-12T12:09:56.568Z,2.40
2023-03-12T12:12:41.449Z,2.10
2023-03-12T12:15:10.220Z,2.10
2023-03-12T12:17:51.268Z,2.20
2023-03-12T12:20:26.936Z,2.20
2023-03-12T12:23:23.014Z,2.70
2023-03-12T12:26:12.490Z,5.80
2023-03-12T12:28:55.274Z,3.50
2023-03-12T12:31:49.857Z,2.20
2023-03-12T12:34:32.869Z,2.70
2023-03-12T12:37:25.191Z,1.80
2023-03-12T12:40:10.746Z,2.00
2023-03-12T12:43:07.137Z,1.40
2023-03-12T12:45:41.195Z,1.90
2023-03-12T12:48:25.333Z,1.60
2023-03-12T12:53:44.541Z,1.60
2023-03-12T12:56:22.487Z,2.00
2023-03-12T12:58:53.884Z,1.80
2023-03-12T13:01:22.274Z,1.80
2023-03-12T13:03:50.934Z,1.50
2023-03-12T13:06:19.113Z,1.70
2023-03-12T13:08:48.144Z,1.50
2023-03-12T13:11:20.458Z,1.60
2023-03-12T13:14:13.584Z,1.70
2023-03-12T13:16:44.577Z,1.80
2023-03-12T13:19:16.170Z,2.00
2023-03-12T13:21:59.343Z,1.80
2023-03-12T13:24:43.891Z,2.20
2023-03-12T13:27:19.167Z,1.90
2023-03-12T13:29:47.753Z,2.00
2023-03-12T13:32:34.652Z,1.60
2023-03-12T13:35:23.172Z,2.10
2023-03-12T13:37:51.330Z,2.40
2023-03-12T13:40:32.611Z,2.60
2023-03-12T13:43:14.259Z,2.60
2023-03-12T13:46:06.859Z,2.50
2023-03-12T13:48:36.519Z,2.40
2023-03-12T13:51:25.071Z,2.70
2023-03-12T13:53:58.264Z,2.10
2023-03-12T13:56:32.414Z,2.20
2023-03-12T13:59:03.834Z,2.10
2023-03-12T14:01:38.025Z,1.30
2023-03-12T14:04:12.674Z,1.70
2023-03-12T14:07:05.440Z,1.80
2023-03-12T14:09:57.696Z,2.00
2023-03-12T14:12:34.663Z,2.00
2023-03-12T14:15:21.290Z,1.70
2023-03-12T14:17:58.384Z,2.00
2023-03-12T14:20:28.436Z,2.00
2023-03-12T14:23:06.505Z,1.60
2023-03-12T14:25:46.728Z,2.10
2023-03-12T14:28:21.925Z,2.30
2023-03-12T14:31:01.481Z,2.10
2023-03-12T14:33:50.441Z,2.10
2023-03-12T14:36:22.937Z,1.80
2023-03-12T14:39:00.332Z,2.10
2023-03-12T14:41:38.452Z,1.40
2023-03-12T14:44:21.944Z,1.70
2023-03-12T14:47:10.242Z,1.50
2023-03-12T14:49:44.053Z,1.70
2023-03-12T14:54:54.174Z,1.70
2023-03-12T14:57:24.787Z,1.60
2023-03-12T15:00:00.965Z,2.30
2023-03-12T15:02:31.806Z,3.60
2023-03-12T15:05:02.311Z,3.70
2023-03-12T15:07:39.636Z,4.30
2023-03-12T15:10:18.520Z,4.20
2023-03-12T15:12:47.288Z,3.30
2023-03-12T15:15:42.893Z,3.40
2023-03-12T15:18:18.815Z,3.60
2023-03-12T15:20:51.055Z,3.10
2023-03-12T15:23:21.592Z,3.50
2023-03-12T15:26:13.551Z,3.70
2023-03-12T15:28:43.149Z,4.00
2023-03-12T15:31:16.883Z,4.40
2023-03-12T15:33:45.470Z,4.20
2023-03-12T15:36:19.901Z,4.20
2023-03-12T15:38:55.726Z,4.10
2023-03-12T15:41:40.356Z,4.50
2023-03-12T15:44:23.992Z,4.60
2023-03-12T15:47:09.996Z,6.30
2023-03-12T15:49:39.318Z,6.80
2023-03-12T15:52:28.226Z,6.50
2023-03-12T15:55:24.475Z,6.90
2023-03-12T15:57:57.082Z,6.50
2023-03-12T16:00:30.436Z,8.30
2023-03-12T16:03:08.205Z,7.30
2023-03-12T16:05:39.742Z,6.60
2023-03-12T16:08:37.269Z,7.00
2023-03-12T16:11:15.463Z,6.40
2023-03-12T16:13:45.332Z,6.60
2023-03-12T16:16:14.907Z,6.90
2023-03-12T16:18:44.107Z,6.40
2023-03-12T16:21:12.488Z,7.00
2023-03-12T16:23:40.891Z,8.20
2023-03-12T16:26:09.223Z,8.10
2023-03-12T16:28:37.687Z,8.70
2023-03-12T16:31:12.395Z,10.60
2023-03-12T16:33:41.835Z,10.40
2023-03-12T16:36:14.074Z,12.60
2023-03-12T16:38:44.185Z,13.50
2023-03-12T16:41:15.689Z,12.30
2023-03-12T16:43:48.736Z,11.20
2023-03-12T16:46:19.967Z,12.20
2023-03-12T16:48:55.857Z,11.60
2023-03-12T16:51:24.135Z,17.80
2023-03-12T16:54:06.932Z,25.40
2023-03-12T16:56:37.490Z,43.30
2023-03-12T16:59:11.328Z,45.00
2023-03-12T17:01:39.676Z,38.80
2023-03-12T17:04:11.440Z,22.20
2023-03-12T17:06:41.456Z,17.70
2023-03-12T17:09:09.726Z,17.30
2023-03-12T17:11:38.206Z,20.10
2023-03-12T17:14:23.149Z,16.80
2023-03-12T17:16:52.798Z,18.70
2023-03-12T17:19:21.060Z,17.30
2023-03-12T17:21:50.063Z,18.20
2023-03-12T17:24:19.684Z,20.80
2023-03-12T17:26:53.565Z,21.50
2023-03-12T17:29:21.742Z,24.20
2023-03-12T17:31:50.228Z,29.20
2023-03-12T17:34:18.512Z,28.60
2023-03-12T17:36:46.941Z,31.60
2023-03-12T17:39:15.394Z,31.50
2023-03-12T17:41:43.682Z,29.40
2023-03-12T17:44:14.885Z,31.30
2023-03-12T17:46:56.600Z,40.20
2023-03-12T17:49:28.838Z,36.20
2023-03-12T17:51:57.584Z,36.80
2023-03-12T17:54:25.808Z,35.30
2023-03-12T17:56:54.245Z,30.70
2023-03-12T17:59:22.466Z,32.80
2023-03-12T18:01:51.101Z,30.30
2023-03-12T18:04:19.457Z,28.80
2023-03-12T18:06:47.945Z,25.70
2023-03-12T18:09:16.100Z,27.30
2023-03-12T18:11:44.271Z,29.10
2023-03-12T18:14:12.662Z,28.10
2023-03-12T18:16:40.919Z,28.10
2023-03-12T18:19:10.435Z,28.70
2023-03-12T18:21:38.795Z,30.50
2023-03-12T18:24:13.978Z,33.80
2023-03-12T18:26:42.880Z,36.40
2023-03-12T18:29:11.339Z,36.20
2023-03-12T18:31:39.786Z,35.90
2023-03-12T18:34:08.358Z,36.60
2023-03-12T18:36:36.687Z,35.20
2023-03-12T18:39:06.323Z,34.90
2023-03-12T18:41:35.059Z,34.20
2023-03-12T18:44:04.459Z,33.60
2023-03-12T18:46:33.436Z,37.60
2023-03-12T18:49:09.287Z,34.80
2023-03-12T18:51:38.238Z,34.70
2023-03-12T18:54:06.879Z,32.50
2023-03-12T18:56:38.229Z,36.80
2023-03-12T18:59:09.852Z,40.60
2023-03-12T19:01:39.480Z,37.40
2023-03-12T19:04:09.948Z,34.10
2023-03-12T19:06:50.269Z,32.00
2023-03-12T19:09:20.544Z,28.60
2023-03-12T19:11:49.518Z,28.10
2023-03-12T19:14:18.130Z,26.80
2023-03-12T19:16:46.956Z,29.30
2023-03-12T19:19:15.812Z,28.40
2023-03-12T19:21:44.388Z,28.50
2023-03-12T19:24:12.784Z,28.90
2023-03-12T19:26:42.531Z,27.90
2023-03-12T19:29:11.308Z,29.80
2023-03-12T19:31:39.742Z,27.50
2023-03-12T19:34:07.945Z,29.40
2023-03-12T19:36:36.082Z,29.50
2023-03-12T19:39:11.947Z,28.20
2023-03-12T19:41:47.273Z,31.30
2023-03-12T19:44:15.504Z,29.50
2023-03-12T19:46:43.819Z,32.40
2023-03-12T19:49:12.114Z,31.50
2023-03-12T19:51:41.406Z,29.60
2023-03-12T19:54:09.755Z,30.20
2023-03-12T19:56:38.242Z,28.60
2023-03-12T19:59:06.450Z,24.00
2023-03-12T20:01:34.948Z,21.40
2023-03-12T20:04:08.014Z,21.50
2023-03-12T20:06:36.237Z,20.30
2023-03-12T20:09:05.657Z,17.80
2023-03-12T20:11:35.837Z,16.50
2023-03-12T20:14:05.117Z,16.50
2023-03-12T20:16:33.524Z,17.10
2023-03-12T20:19:01.808Z,19.80
2023-03-12T20:21:30.821Z,17.70
2023-03-12T20:23:59.220Z,18.00
2023-03-12T20:26:27.537Z,20.80
2023-03-12T20:28:56.412Z,18.60
2023-03-12T20:31:24.604Z,19.60
2023-03-12T20:33:53.207Z,21.30
2023-03-12T20:36:21.652Z,19.00
2023-03-12T20:38:50.156Z,18.90
2023-03-12T20:41:18.396Z,20.70
2023-03-12T20:43:48.600Z,22.80
2023-03-12T20:46:19.420Z,24.80
2023-03-12T20:48:47.689Z,22.60
2023-03-12T20:51:16.091Z,22.60
2023-03-12T20:53:44.912Z,22.90
2023-03-12T20:56:13.573Z,19.50
2023-03-12T20:58:45.576Z,17.60
2023-03-12T21:01:16.688Z,16.20
2023-03-12T21:03:48.636Z,13.90
2023-03-12T21:06:16.985Z,13.60
2023-03-12T21:08:45.159Z,12.40
2023-03-12T21:11:13.666Z,11.70
2023-03-12T21:13:42.334Z,11.00
2023-03-12T21:16:11.839Z,11.00
2023-03-12T21:18:43.023Z,9.90
2023-03-12T21:21:14.220Z,9.50
2023-03-12T21:23:42.622Z,9.50
2023-03-12T21:26:11.770Z,13.30
2023-03-12T21:28:39.976Z,10.70
2023-03-12T21:31:12.481Z,12.70
2023-03-12T21:33:42.983Z,12.00
2023-03-12T21:36:14.288Z,12.90
2023-03-12T21:38:43.215Z,12.70
2023-03-12T21:41:14.897Z,11.60
2023-03-12T21:43:44.255Z,12.70
2023-03-12T21:46:19.121Z,13.00
2023-03-12T21:48:48.422Z,12.30
2023-03-12T21:51:18.036Z,12.00
2023-03-12T21:53:46.273Z,11.70
2023-03-12T21:56:14.408Z,11.90
2023-03-12T21:58:42.623Z,12.40
2023-03-12T22:01:17.358Z,11.50
2023-03-12T22:03:46.559Z,11.90
2023-03-12T22:06:16.119Z,12.90
2023-03-12T22:08:47.124Z,12.00
2023-03-12T22:11:16.225Z,12.80
2023-03-12T22:13:44.957Z,12.60
2023-03-12T22:16:14.477Z,11.80
2023-03-12T22:18:45.417Z,13.20
2023-03-12T22:21:21.773Z,11.80
2023-03-12T22:23:52.957Z,11.80
2023-03-12T22:26:23.096Z,11.80
2023-03-12T22:28:53.371Z,11.70
2023-03-12T22:31:23.120Z,11.40
2023-03-12T22:33:51.774Z,12.20
2023-03-12T22:36:21.020Z,11.40
2023-03-12T22:38:49.931Z,12.20
2023-03-12T22:41:18.342Z,10.50
2023-03-12T22:43:47.992Z,10.50
2023-03-12T22:46:18.651Z,9.90
2023-03-12T22:48:51.549Z,10.30
2023-03-12T22:51:19.794Z,10.80
2023-03-12T22:53:48.373Z,10.40
2023-03-12T22:56:18.139Z,10.60
2023-03-12T22:58:46.441Z,9.80
2023-03-12T23:01:20.355Z,9.30
2023-03-12T23:03:50.081Z,9.80
2023-03-12T23:06:23.846Z,8.80
2023-03-12T23:08:54.878Z,9.10
2023-03-12T23:11:25.573Z,9.30
2023-03-12T23:13:54.482Z,9.20
2023-03-12T23:16:25.638Z,8.40
2023-03-12T23:18:55.377Z,8.80
2023-03-12T23:21:24.695Z,8.20
2023-03-12T23:23:53.200Z,8.00
2023-03-12T23:26:24.576Z,7.80
2023-03-12T23:28:58.071Z,8.60
2023-03-12T23:31:28.678Z,8.40
2023-03-12T23:33:58.651Z,7.60
2023-03-12T23:36:28.959Z,8.50
2023-03-12T23:38:57.332Z,8.70
2023-03-12T23:41:29.562Z,7.60
2023-03-12T23:43:58.917Z,8.20
2023-03-12T23:46:27.598Z,8.60
2023-03-12T23:48:56.380Z,8.60
2023-03-12T23:51:30.164Z,8.50
2023-03-12T23:54:01.372Z,8.10
2023-03-12T23:56:37.853Z,9.00
2023-03-12T23:59:08.459Z,9.00
